sensor_id;sensor_type;location;lat;lon;timestamp;temperature;humidity
4578;DHT22;2301;47.354;8.528;2022-12-04T00:01:37;5.80;80.20
4578;DHT22;2301;47.354;8.528;2022-12-04T00:04:04;5.80;80.20
4578;DHT22;2301;47.354;8.528;2022-12-04T00:06:32;5.80;80.20
4578;DHT22;2301;47.354;8.528;2022-12-04T00:09:01;5.80;80.20
4578;DHT22;2301;47.354;8.528;2022-12-04T00:11:31;5.80;80.20
4578;DHT22;2301;47.354;8.528;2022-12-04T00:13:59;5.80;80.30
4578;DHT22;2301;47.354;8.528;2022-12-04T00:16:27;5.80;80.40
4578;DHT22;2301;47.354;8.528;2022-12-04T00:18:55;5.80;80.40
4578;DHT22;2301;47.354;8.528;2022-12-04T00:21:24;5.80;80.30
4578;DHT22;2301;47.354;8.528;2022-12-04T00:23:52;5.80;80.40
4578;DHT22;2301;47.354;8.528;2022-12-04T00:26:25;5.80;80.40
4578;DHT22;2301;47.354;8.528;2022-12-04T00:28:53;5.80;80.40
4578;DHT22;2301;47.354;8.528;2022-12-04T00:31:22;5.80;80.40
4578;DHT22;2301;47.354;8.528;2022-12-04T00:33:51;5.80;80.40
4578;DHT22;2301;47.354;8.528;2022-12-04T00:36:21;5.80;80.20
4578;DHT22;2301;47.354;8.528;2022-12-04T00:38:49;5.80;80.40
4578;DHT22;2301;47.354;8.528;2022-12-04T00:41:24;5.80;80.50
4578;DHT22;2301;47.354;8.528;2022-12-04T00:43:52;5.80;80.50
4578;DHT22;2301;47.354;8.528;2022-12-04T00:46:20;5.90;80.60
4578;DHT22;2301;47.354;8.528;2022-12-04T00:49:04;5.80;80.50
4578;DHT22;2301;47.354;8.528;2022-12-04T00:51:34;5.80;80.50
4578;DHT22;2301;47.354;8.528;2022-12-04T00:54:02;5.80;80.50
4578;DHT22;2301;47.354;8.528;2022-12-04T00:56:31;5.80;80.40
4578;DHT22;2301;47.354;8.528;2022-12-04T00:58:59;5.80;80.40
4578;DHT22;2301;47.354;8.528;2022-12-04T01:01:31;5.80;80.50
4578;DHT22;2301;47.354;8.528;2022-12-04T01:03:59;5.90;80.50
4578;DHT22;2301;47.354;8.528;2022-12-04T01:06:28;5.90;80.50
4578;DHT22;2301;47.354;8.528;2022-12-04T01:08:57;5.80;80.40
4578;DHT22;2301;47.354;8.528;2022-12-04T01:11:25;5.80;80.50
4578;DHT22;2301;47.354;8.528;2022-12-04T01:13:55;5.80;80.50
4578;DHT22;2301;47.354;8.528;2022-12-04T01:16:28;5.90;80.70
4578;DHT22;2301;47.354;8.528;2022-12-04T01:18:56;5.90;80.60
4578;DHT22;2301;47.354;8.528;2022-12-04T01:21:24;5.80;80.60
4578;DHT22;2301;47.354;8.528;2022-12-04T01:23:51;5.80;80.50
4578;DHT22;2301;47.354;8.528;2022-12-04T01:26:21;5.80;80.50
4578;DHT22;2301;47.354;8.528;2022-12-04T01:28:49;5.80;80.50
4578;DHT22;2301;47.354;8.528;2022-12-04T01:31:19;5.80;80.40
4578;DHT22;2301;47.354;8.528;2022-12-04T01:33:50;5.80;80.50
4578;DHT22;2301;47.354;8.528;2022-12-04T01:36:22;5.80;80.50
4578;DHT22;2301;47.354;8.528;2022-12-04T01:38:55;5.80;80.40
4578;DHT22;2301;47.354;8.528;2022-12-04T01:41:25;5.70;80.40
4578;DHT22;2301;47.354;8.528;2022-12-04T01:44:11;5.70;80.50
4578;DHT22;2301;47.354;8.528;2022-12-04T01:46:42;5.80;80.70
4578;DHT22;2301;47.354;8.528;2022-12-04T01:49:13;5.70;80.60
4578;DHT22;2301;47.354;8.528;2022-12-04T01:51:43;5.70;80.70
4578;DHT22;2301;47.354;8.528;2022-12-04T01:54:16;5.70;80.70
4578;DHT22;2301;47.354;8.528;2022-12-04T01:56:47;5.70;80.90
4578;DHT22;2301;47.354;8.528;2022-12-04T01:59:17;5.70;80.90
4578;DHT22;2301;47.354;8.528;2022-12-04T02:01:51;5.70;81.00
4578;DHT22;2301;47.354;8.528;2022-12-04T02:04:19;5.70;81.00
4578;DHT22;2301;47.354;8.528;2022-12-04T02:06:46;5.70;80.90
4578;DHT22;2301;47.354;8.528;2022-12-04T02:09:13;5.70;80.90
4578;DHT22;2301;47.354;8.528;2022-12-04T02:11:45;5.70;81.00
4578;DHT22;2301;47.354;8.528;2022-12-04T02:14:25;5.70;80.90
4578;DHT22;2301;47.354;8.528;2022-12-04T02:17:03;5.70;81.00
4578;DHT22;2301;47.354;8.528;2022-12-04T02:19:56;5.70;81.10
4578;DHT22;2301;47.354;8.528;2022-12-04T02:22:49;5.60;81.10
4578;DHT22;2301;47.354;8.528;2022-12-04T02:25:31;5.60;81.20
4578;DHT22;2301;47.354;8.528;2022-12-04T02:28:13;5.70;81.30
4578;DHT22;2301;47.354;8.528;2022-12-04T02:30:51;5.60;81.40
4578;DHT22;2301;47.354;8.528;2022-12-04T02:33:23;5.60;81.40
4578;DHT22;2301;47.354;8.528;2022-12-04T02:35:56;5.60;81.40
4578;DHT22;2301;47.354;8.528;2022-12-04T02:38:34;5.60;81.40
4578;DHT22;2301;47.354;8.528;2022-12-04T02:41:07;5.60;81.50
4578;DHT22;2301;47.354;8.528;2022-12-04T02:43:41;5.60;81.50
4578;DHT22;2301;47.354;8.528;2022-12-04T02:46:15;5.60;81.50
4578;DHT22;2301;47.354;8.528;2022-12-04T02:48:45;5.60;81.50
4578;DHT22;2301;47.354;8.528;2022-12-04T02:51:15;5.60;81.50
4578;DHT22;2301;47.354;8.528;2022-12-04T02:53:55;5.60;81.50
4578;DHT22;2301;47.354;8.528;2022-12-04T02:56:29;5.60;81.50
4578;DHT22;2301;47.354;8.528;2022-12-04T02:59:03;5.60;81.40
4578;DHT22;2301;47.354;8.528;2022-12-04T03:01:35;5.60;81.60
4578;DHT22;2301;47.354;8.528;2022-12-04T03:04:09;5.50;81.60
4578;DHT22;2301;47.354;8.528;2022-12-04T03:06:39;5.50;81.60
4578;DHT22;2301;47.354;8.528;2022-12-04T03:09:12;5.50;81.70
4578;DHT22;2301;47.354;8.528;2022-12-04T03:11:48;5.50;81.80
4578;DHT22;2301;47.354;8.528;2022-12-04T03:14:21;5.50;81.90
4578;DHT22;2301;47.354;8.528;2022-12-04T03:16:52;5.50;82.00
4578;DHT22;2301;47.354;8.528;2022-12-04T03:19:24;5.50;82.10
4578;DHT22;2301;47.354;8.528;2022-12-04T03:21:58;5.50;82.10
4578;DHT22;2301;47.354;8.528;2022-12-04T03:24:31;5.50;82.20
4578;DHT22;2301;47.354;8.528;2022-12-04T03:27:03;5.50;82.20
4578;DHT22;2301;47.354;8.528;2022-12-04T03:29:39;5.50;82.20
4578;DHT22;2301;47.354;8.528;2022-12-04T03:32:24;5.50;82.20
4578;DHT22;2301;47.354;8.528;2022-12-04T03:34:56;5.50;82.20
4578;DHT22;2301;47.354;8.528;2022-12-04T03:37:33;5.50;82.20
4578;DHT22;2301;47.354;8.528;2022-12-04T03:40:16;5.50;82.30
4578;DHT22;2301;47.354;8.528;2022-12-04T03:42:50;5.50;82.30
4578;DHT22;2301;47.354;8.528;2022-12-04T03:45:42;5.50;82.50
4578;DHT22;2301;47.354;8.528;2022-12-04T03:48:21;5.50;82.40
4578;DHT22;2301;47.354;8.528;2022-12-04T03:50:57;5.60;82.60
4578;DHT22;2301;47.354;8.528;2022-12-04T03:53:31;5.60;82.60
4578;DHT22;2301;47.354;8.528;2022-12-04T03:56:08;5.60;82.60
4578;DHT22;2301;47.354;8.528;2022-12-04T03:58:40;5.60;82.60
4578;DHT22;2301;47.354;8.528;2022-12-04T04:01:12;5.60;83.30
4578;DHT22;2301;47.354;8.528;2022-12-04T04:03:44;5.60;82.40
4578;DHT22;2301;47.354;8.528;2022-12-04T04:06:16;5.60;82.60
4578;DHT22;2301;47.354;8.528;2022-12-04T04:08:47;5.60;82.60
4578;DHT22;2301;47.354;8.528;2022-12-04T04:11:17;5.60;82.60
4578;DHT22;2301;47.354;8.528;2022-12-04T04:13:52;5.60;82.50
4578;DHT22;2301;47.354;8.528;2022-12-04T04:16:42;5.60;82.50
4578;DHT22;2301;47.354;8.528;2022-12-04T04:19:30;5.60;82.60
4578;DHT22;2301;47.354;8.528;2022-12-04T04:22:18;5.60;82.50
4578;DHT22;2301;47.354;8.528;2022-12-04T04:25:07;5.60;82.50
4578;DHT22;2301;47.354;8.528;2022-12-04T04:27:38;5.60;82.60
4578;DHT22;2301;47.354;8.528;2022-12-04T04:30:09;5.60;82.60
4578;DHT22;2301;47.354;8.528;2022-12-04T04:32:41;5.60;83.30
4578;DHT22;2301;47.354;8.528;2022-12-04T04:35:18;5.70;82.60
4578;DHT22;2301;47.354;8.528;2022-12-04T04:37:53;5.60;82.50
4578;DHT22;2301;47.354;8.528;2022-12-04T04:40:29;5.70;82.60
4578;DHT22;2301;47.354;8.528;2022-12-04T04:43:02;5.60;82.50
4578;DHT22;2301;47.354;8.528;2022-12-04T04:45:37;5.70;82.50
4578;DHT22;2301;47.354;8.528;2022-12-04T04:48:12;5.60;82.40
4578;DHT22;2301;47.354;8.528;2022-12-04T04:50:41;5.60;82.40
4578;DHT22;2301;47.354;8.528;2022-12-04T04:53:12;5.60;82.40
4578;DHT22;2301;47.354;8.528;2022-12-04T04:55:45;5.60;82.40
4578;DHT22;2301;47.354;8.528;2022-12-04T04:58:17;5.60;82.50
4578;DHT22;2301;47.354;8.528;2022-12-04T05:00:49;5.60;82.40
4578;DHT22;2301;47.354;8.528;2022-12-04T05:03:22;5.60;82.50
4578;DHT22;2301;47.354;8.528;2022-12-04T05:05:50;5.60;82.40
4578;DHT22;2301;47.354;8.528;2022-12-04T05:08:17;5.60;82.60
4578;DHT22;2301;47.354;8.528;2022-12-04T05:10:52;5.60;82.50
4578;DHT22;2301;47.354;8.528;2022-12-04T05:13:26;5.60;82.60
4578;DHT22;2301;47.354;8.528;2022-12-04T05:15:59;5.60;82.70
4578;DHT22;2301;47.354;8.528;2022-12-04T05:18:39;5.60;82.70
4578;DHT22;2301;47.354;8.528;2022-12-04T05:21:11;5.60;82.70
4578;DHT22;2301;47.354;8.528;2022-12-04T05:23:41;5.60;82.70
4578;DHT22;2301;47.354;8.528;2022-12-04T05:26:08;5.60;82.60
4578;DHT22;2301;47.354;8.528;2022-12-04T05:28:35;5.60;82.60
4578;DHT22;2301;47.354;8.528;2022-12-04T05:31:08;5.60;82.70
4578;DHT22;2301;47.354;8.528;2022-12-04T05:33:36;5.60;82.80
4578;DHT22;2301;47.354;8.528;2022-12-04T05:36:07;5.60;82.70
4578;DHT22;2301;47.354;8.528;2022-12-04T05:38:44;5.60;82.80
4578;DHT22;2301;47.354;8.528;2022-12-04T05:41:36;5.60;82.80
4578;DHT22;2301;47.354;8.528;2022-12-04T05:44:05;5.60;82.70
4578;DHT22;2301;47.354;8.528;2022-12-04T05:46:34;5.60;82.70
4578;DHT22;2301;47.354;8.528;2022-12-04T05:49:08;5.60;82.80
4578;DHT22;2301;47.354;8.528;2022-12-04T05:51:42;5.60;82.70
4578;DHT22;2301;47.354;8.528;2022-12-04T05:54:09;5.60;82.80
4578;DHT22;2301;47.354;8.528;2022-12-04T05:56:37;5.60;82.80
4578;DHT22;2301;47.354;8.528;2022-12-04T05:59:04;5.60;82.90
4578;DHT22;2301;47.354;8.528;2022-12-04T06:01:31;5.60;82.80
4578;DHT22;2301;47.354;8.528;2022-12-04T06:04:02;5.70;82.90
4578;DHT22;2301;47.354;8.528;2022-12-04T06:06:29;5.60;82.80
4578;DHT22;2301;47.354;8.528;2022-12-04T06:08:59;5.60;82.70
4578;DHT22;2301;47.354;8.528;2022-12-04T06:11:31;5.60;82.80
4578;DHT22;2301;47.354;8.528;2022-12-04T06:14:05;5.60;82.90
4578;DHT22;2301;47.354;8.528;2022-12-04T06:16:36;5.60;83.00
4578;DHT22;2301;47.354;8.528;2022-12-04T06:19:09;5.60;83.00
4578;DHT22;2301;47.354;8.528;2022-12-04T06:21:38;5.60;83.00
4578;DHT22;2301;47.354;8.528;2022-12-04T06:24:11;5.60;83.10
4578;DHT22;2301;47.354;8.528;2022-12-04T06:26:39;5.60;83.10
4578;DHT22;2301;47.354;8.528;2022-12-04T06:29:09;5.60;83.00
4578;DHT22;2301;47.354;8.528;2022-12-04T06:31:42;5.60;83.10
4578;DHT22;2301;47.354;8.528;2022-12-04T06:34:13;5.60;83.30
4578;DHT22;2301;47.354;8.528;2022-12-04T06:36:40;5.60;83.00
4578;DHT22;2301;47.354;8.528;2022-12-04T06:39:09;5.70;83.10
4578;DHT22;2301;47.354;8.528;2022-12-04T06:41:37;5.60;82.90
4578;DHT22;2301;47.354;8.528;2022-12-04T06:44:04;5.60;82.90
4578;DHT22;2301;47.354;8.528;2022-12-04T06:46:33;5.60;82.90
4578;DHT22;2301;47.354;8.528;2022-12-04T06:49:01;5.60;83.00
4578;DHT22;2301;47.354;8.528;2022-12-04T06:52:00;5.60;83.00
4578;DHT22;2301;47.354;8.528;2022-12-04T06:54:27;5.60;83.10
4578;DHT22;2301;47.354;8.528;2022-12-04T06:56:54;5.60;83.10
4578;DHT22;2301;47.354;8.528;2022-12-04T06:59:21;5.60;83.00
4578;DHT22;2301;47.354;8.528;2022-12-04T07:01:48;5.60;83.10
4578;DHT22;2301;47.354;8.528;2022-12-04T07:04:15;5.60;83.00
4578;DHT22;2301;47.354;8.528;2022-12-04T07:06:42;5.60;83.00
4578;DHT22;2301;47.354;8.528;2022-12-04T07:09:13;5.60;83.00
4578;DHT22;2301;47.354;8.528;2022-12-04T07:11:42;5.60;83.10
4578;DHT22;2301;47.354;8.528;2022-12-04T07:14:10;5.60;83.10
4578;DHT22;2301;47.354;8.528;2022-12-04T07:16:38;5.60;83.10
4578;DHT22;2301;47.354;8.528;2022-12-04T07:19:05;5.70;83.20
4578;DHT22;2301;47.354;8.528;2022-12-04T07:21:38;5.70;83.20
4578;DHT22;2301;47.354;8.528;2022-12-04T07:24:14;5.70;83.20
4578;DHT22;2301;47.354;8.528;2022-12-04T07:26:41;5.70;83.20
4578;DHT22;2301;47.354;8.528;2022-12-04T07:29:11;5.60;83.00
4578;DHT22;2301;47.354;8.528;2022-12-04T07:31:40;5.60;83.10
4578;DHT22;2301;47.354;8.528;2022-12-04T07:34:09;5.60;83.10
4578;DHT22;2301;47.354;8.528;2022-12-04T07:36:42;5.60;83.10
4578;DHT22;2301;47.354;8.528;2022-12-04T07:39:11;5.70;83.20
4578;DHT22;2301;47.354;8.528;2022-12-04T07:41:40;5.70;83.20
4578;DHT22;2301;47.354;8.528;2022-12-04T07:44:07;5.70;83.10
4578;DHT22;2301;47.354;8.528;2022-12-04T07:46:37;5.70;83.10
4578;DHT22;2301;47.354;8.528;2022-12-04T07:49:04;5.70;83.10
4578;DHT22;2301;47.354;8.528;2022-12-04T07:51:31;5.70;83.10
4578;DHT22;2301;47.354;8.528;2022-12-04T07:53:58;5.70;83.10
4578;DHT22;2301;47.354;8.528;2022-12-04T07:56:26;5.70;82.90
4578;DHT22;2301;47.354;8.528;2022-12-04T07:58:54;5.70;83.00
4578;DHT22;2301;47.354;8.528;2022-12-04T08:01:22;5.70;83.80
4578;DHT22;2301;47.354;8.528;2022-12-04T08:03:53;5.70;83.10
4578;DHT22;2301;47.354;8.528;2022-12-04T08:06:27;5.80;83.20
4578;DHT22;2301;47.354;8.528;2022-12-04T08:08:54;5.80;83.10
4578;DHT22;2301;47.354;8.528;2022-12-04T08:11:27;5.80;83.10
4578;DHT22;2301;47.354;8.528;2022-12-04T08:13:59;5.90;83.30
4578;DHT22;2301;47.354;8.528;2022-12-04T08:16:28;5.80;83.10
4578;DHT22;2301;47.354;8.528;2022-12-04T08:18:57;5.80;83.10
4578;DHT22;2301;47.354;8.528;2022-12-04T08:21:28;5.80;83.20
4578;DHT22;2301;47.354;8.528;2022-12-04T08:23:57;5.80;83.10
4578;DHT22;2301;47.354;8.528;2022-12-04T08:26:29;5.80;83.10
4578;DHT22;2301;47.354;8.528;2022-12-04T08:28:58;5.80;83.00
4578;DHT22;2301;47.354;8.528;2022-12-04T08:31:30;5.80;82.80
4578;DHT22;2301;47.354;8.528;2022-12-04T08:33:59;5.80;82.80
4578;DHT22;2301;47.354;8.528;2022-12-04T08:36:27;5.80;82.90
4578;DHT22;2301;47.354;8.528;2022-12-04T08:38:54;5.80;82.80
4578;DHT22;2301;47.354;8.528;2022-12-04T08:41:23;5.80;82.80
4578;DHT22;2301;47.354;8.528;2022-12-04T08:43:53;5.80;82.80
4578;DHT22;2301;47.354;8.528;2022-12-04T08:46:22;5.80;82.70
4578;DHT22;2301;47.354;8.528;2022-12-04T08:49:02;5.80;82.70
4578;DHT22;2301;47.354;8.528;2022-12-04T08:51:30;5.80;82.60
4578;DHT22;2301;47.354;8.528;2022-12-04T08:54:00;5.80;82.80
4578;DHT22;2301;47.354;8.528;2022-12-04T08:56:29;5.90;82.90
4578;DHT22;2301;47.354;8.528;2022-12-04T08:58:58;5.80;82.80
4578;DHT22;2301;47.354;8.528;2022-12-04T09:01:26;5.80;82.80
4578;DHT22;2301;47.354;8.528;2022-12-04T09:03:54;5.70;82.80
4578;DHT22;2301;47.354;8.528;2022-12-04T09:06:23;5.70;82.60
4578;DHT22;2301;47.354;8.528;2022-12-04T09:08:52;5.70;82.60
4578;DHT22;2301;47.354;8.528;2022-12-04T09:11:21;5.80;82.80
4578;DHT22;2301;47.354;8.528;2022-12-04T09:13:49;5.70;82.80
4578;DHT22;2301;47.354;8.528;2022-12-04T09:16:24;5.70;82.80
4578;DHT22;2301;47.354;8.528;2022-12-04T09:18:51;5.70;82.90
4578;DHT22;2301;47.354;8.528;2022-12-04T09:21:20;5.70;82.80
4578;DHT22;2301;47.354;8.528;2022-12-04T09:23:48;5.70;82.80
4578;DHT22;2301;47.354;8.528;2022-12-04T09:26:18;5.70;82.90
4578;DHT22;2301;47.354;8.528;2022-12-04T09:28:46;5.70;82.90
4578;DHT22;2301;47.354;8.528;2022-12-04T09:31:14;5.70;83.10
4578;DHT22;2301;47.354;8.528;2022-12-04T09:33:45;5.70;83.10
4578;DHT22;2301;47.354;8.528;2022-12-04T09:36:12;5.70;83.20
4578;DHT22;2301;47.354;8.528;2022-12-04T09:38:44;5.70;83.30
4578;DHT22;2301;47.354;8.528;2022-12-04T09:41:30;5.70;83.50
4578;DHT22;2301;47.354;8.528;2022-12-04T09:44:05;5.70;83.70
4578;DHT22;2301;47.354;8.528;2022-12-04T09:46:35;5.70;83.70
4578;DHT22;2301;47.354;8.528;2022-12-04T09:49:09;5.80;83.70
4578;DHT22;2301;47.354;8.528;2022-12-04T09:51:39;5.70;83.70
4578;DHT22;2301;47.354;8.528;2022-12-04T09:54:12;5.80;83.90
4578;DHT22;2301;47.354;8.528;2022-12-04T09:56:40;5.80;83.90
4578;DHT22;2301;47.354;8.528;2022-12-04T09:59:13;5.70;83.80
4578;DHT22;2301;47.354;8.528;2022-12-04T10:01:55;5.70;84.10
4578;DHT22;2301;47.354;8.528;2022-12-04T10:04:25;5.80;84.20
4578;DHT22;2301;47.354;8.528;2022-12-04T10:06:59;5.80;84.00
4578;DHT22;2301;47.354;8.528;2022-12-04T10:09:38;5.80;84.20
4578;DHT22;2301;47.354;8.528;2022-12-04T10:12:14;5.80;84.30
4578;DHT22;2301;47.354;8.528;2022-12-04T10:15:07;5.80;84.40
4578;DHT22;2301;47.354;8.528;2022-12-04T10:17:50;5.80;84.60
4578;DHT22;2301;47.354;8.528;2022-12-04T10:20:46;5.80;84.60
4578;DHT22;2301;47.354;8.528;2022-12-04T10:23:24;5.80;84.60
4578;DHT22;2301;47.354;8.528;2022-12-04T10:25:54;5.80;84.70
4578;DHT22;2301;47.354;8.528;2022-12-04T10:28:29;5.80;84.60
4578;DHT22;2301;47.354;8.528;2022-12-04T10:31:00;5.80;84.80
4578;DHT22;2301;47.354;8.528;2022-12-04T10:33:35;5.80;84.80
4578;DHT22;2301;47.354;8.528;2022-12-04T10:36:09;5.80;84.80
4578;DHT22;2301;47.354;8.528;2022-12-04T10:38:41;5.80;84.80
4578;DHT22;2301;47.354;8.528;2022-12-04T10:41:16;5.80;84.80
4578;DHT22;2301;47.354;8.528;2022-12-04T10:43:46;5.80;84.90
4578;DHT22;2301;47.354;8.528;2022-12-04T10:46:18;5.80;84.80
4578;DHT22;2301;47.354;8.528;2022-12-04T10:48:49;5.90;84.90
4578;DHT22;2301;47.354;8.528;2022-12-04T10:51:22;5.90;84.70
4578;DHT22;2301;47.354;8.528;2022-12-04T10:53:49;5.90;84.80
4578;DHT22;2301;47.354;8.528;2022-12-04T10:56:20;5.90;84.60
4578;DHT22;2301;47.354;8.528;2022-12-04T10:58:56;5.90;84.60
4578;DHT22;2301;47.354;8.528;2022-12-04T11:01:27;5.90;84.60
4578;DHT22;2301;47.354;8.528;2022-12-04T11:03:58;5.90;84.60
4578;DHT22;2301;47.354;8.528;2022-12-04T11:06:30;5.90;84.60
4578;DHT22;2301;47.354;8.528;2022-12-04T11:08:59;6.00;84.40
4578;DHT22;2301;47.354;8.528;2022-12-04T11:11:29;5.90;84.40
4578;DHT22;2301;47.354;8.528;2022-12-04T11:14:13;5.90;84.40
4578;DHT22;2301;47.354;8.528;2022-12-04T11:16:47;5.90;84.50
4578;DHT22;2301;47.354;8.528;2022-12-04T11:19:23;5.90;84.40
4578;DHT22;2301;47.354;8.528;2022-12-04T11:21:54;5.90;84.50
4578;DHT22;2301;47.354;8.528;2022-12-04T11:24:24;5.90;84.50
4578;DHT22;2301;47.354;8.528;2022-12-04T11:26:54;5.90;84.40
4578;DHT22;2301;47.354;8.528;2022-12-04T11:29:32;5.90;84.50
4578;DHT22;2301;47.354;8.528;2022-12-04T11:32:02;5.90;84.60
4578;DHT22;2301;47.354;8.528;2022-12-04T11:34:37;5.90;84.50
4578;DHT22;2301;47.354;8.528;2022-12-04T11:37:18;5.90;84.60
4578;DHT22;2301;47.354;8.528;2022-12-04T11:39:46;5.90;84.60
4578;DHT22;2301;47.354;8.528;2022-12-04T11:42:26;5.90;84.70
4578;DHT22;2301;47.354;8.528;2022-12-04T11:44:55;5.90;84.80
4578;DHT22;2301;47.354;8.528;2022-12-04T11:47:24;5.90;84.90
4578;DHT22;2301;47.354;8.528;2022-12-04T11:50:01;5.90;84.80
4578;DHT22;2301;47.354;8.528;2022-12-04T11:52:50;5.90;84.70
4578;DHT22;2301;47.354;8.528;2022-12-04T11:55:26;5.90;84.60
4578;DHT22;2301;47.354;8.528;2022-12-04T11:58:12;5.90;84.60
4578;DHT22;2301;47.354;8.528;2022-12-04T12:00:49;6.00;84.60
4578;DHT22;2301;47.354;8.528;2022-12-04T12:03:23;6.00;84.40
4578;DHT22;2301;47.354;8.528;2022-12-04T12:09:05;6.00;84.20
4578;DHT22;2301;47.354;8.528;2022-12-04T12:11:37;6.00;84.00
4578;DHT22;2301;47.354;8.528;2022-12-04T12:14:11;6.00;83.80
4578;DHT22;2301;47.354;8.528;2022-12-04T12:16:55;6.00;83.60
4578;DHT22;2301;47.354;8.528;2022-12-04T12:19:47;6.00;83.90
4578;DHT22;2301;47.354;8.528;2022-12-04T12:22:28;6.10;84.20
4578;DHT22;2301;47.354;8.528;2022-12-04T12:25:09;6.10;84.20
4578;DHT22;2301;47.354;8.528;2022-12-04T12:28:00;6.10;83.90
4578;DHT22;2301;47.354;8.528;2022-12-04T12:30:40;6.10;83.80
4578;DHT22;2301;47.354;8.528;2022-12-04T12:33:17;6.10;83.70
4578;DHT22;2301;47.354;8.528;2022-12-04T12:35:50;6.20;83.80
4578;DHT22;2301;47.354;8.528;2022-12-04T12:38:25;6.10;83.70
4578;DHT22;2301;47.354;8.528;2022-12-04T12:40:59;6.20;83.60
4578;DHT22;2301;47.354;8.528;2022-12-04T12:43:32;6.20;83.60
4578;DHT22;2301;47.354;8.528;2022-12-04T12:46:05;6.20;83.50
4578;DHT22;2301;47.354;8.528;2022-12-04T12:48:40;6.20;83.60
4578;DHT22;2301;47.354;8.528;2022-12-04T12:51:23;6.20;83.70
4578;DHT22;2301;47.354;8.528;2022-12-04T12:53:55;6.30;84.10
4578;DHT22;2301;47.354;8.528;2022-12-04T12:56:34;6.30;83.90
4578;DHT22;2301;47.354;8.528;2022-12-04T12:59:07;6.30;83.80
4578;DHT22;2301;47.354;8.528;2022-12-04T13:01:43;6.30;83.80
4578;DHT22;2301;47.354;8.528;2022-12-04T13:04:17;6.30;83.90
4578;DHT22;2301;47.354;8.528;2022-12-04T13:06:50;6.30;83.90
4578;DHT22;2301;47.354;8.528;2022-12-04T13:09:24;6.30;84.00
4578;DHT22;2301;47.354;8.528;2022-12-04T13:12:02;6.30;84.10
4578;DHT22;2301;47.354;8.528;2022-12-04T13:14:32;6.30;84.20
4578;DHT22;2301;47.354;8.528;2022-12-04T13:17:10;6.40;84.40
4578;DHT22;2301;47.354;8.528;2022-12-04T13:19:46;6.40;84.60
4578;DHT22;2301;47.354;8.528;2022-12-04T13:22:20;6.40;84.40
4578;DHT22;2301;47.354;8.528;2022-12-04T13:25:10;6.40;84.50
4578;DHT22;2301;47.354;8.528;2022-12-04T13:28:00;6.40;84.40
4578;DHT22;2301;47.354;8.528;2022-12-04T13:30:40;6.50;84.40
4578;DHT22;2301;47.354;8.528;2022-12-04T13:33:35;6.40;84.20
4578;DHT22;2301;47.354;8.528;2022-12-04T13:39:23;6.40;83.90
4578;DHT22;2301;47.354;8.528;2022-12-04T13:41:57;6.40;83.90
4578;DHT22;2301;47.354;8.528;2022-12-04T13:44:29;6.50;83.80
4578;DHT22;2301;47.354;8.528;2022-12-04T13:46:59;6.40;83.70
4578;DHT22;2301;47.354;8.528;2022-12-04T13:49:30;6.50;83.80
4578;DHT22;2301;47.354;8.528;2022-12-04T13:51:58;6.50;83.80
4578;DHT22;2301;47.354;8.528;2022-12-04T13:54:29;6.50;83.80
4578;DHT22;2301;47.354;8.528;2022-12-04T13:59:43;6.60;83.70
4578;DHT22;2301;47.354;8.528;2022-12-04T14:02:26;6.50;83.40
4578;DHT22;2301;47.354;8.528;2022-12-04T14:04:59;6.50;83.30
4578;DHT22;2301;47.354;8.528;2022-12-04T14:07:30;6.60;83.50
4578;DHT22;2301;47.354;8.528;2022-12-04T14:09:59;6.60;83.40
4578;DHT22;2301;47.354;8.528;2022-12-04T14:12:31;6.60;83.30
4578;DHT22;2301;47.354;8.528;2022-12-04T14:15:02;6.50;83.20
4578;DHT22;2301;47.354;8.528;2022-12-04T14:17:33;6.60;83.30
4578;DHT22;2301;47.354;8.528;2022-12-04T14:20:04;6.60;83.20
4578;DHT22;2301;47.354;8.528;2022-12-04T14:22:42;6.60;83.10
4578;DHT22;2301;47.354;8.528;2022-12-04T14:25:33;6.60;83.00
4578;DHT22;2301;47.354;8.528;2022-12-04T14:28:11;6.60;82.60
4578;DHT22;2301;47.354;8.528;2022-12-04T14:30:42;6.50;82.30
4578;DHT22;2301;47.354;8.528;2022-12-04T14:33:19;6.50;82.20
4578;DHT22;2301;47.354;8.528;2022-12-04T14:35:58;6.50;82.10
4578;DHT22;2301;47.354;8.528;2022-12-04T14:38:29;6.40;82.10
4578;DHT22;2301;47.354;8.528;2022-12-04T14:40:58;6.40;82.30
4578;DHT22;2301;47.354;8.528;2022-12-04T14:43:38;6.40;82.40
4578;DHT22;2301;47.354;8.528;2022-12-04T14:46:12;6.50;82.50
4578;DHT22;2301;47.354;8.528;2022-12-04T14:48:47;6.50;82.50
4578;DHT22;2301;47.354;8.528;2022-12-04T14:51:21;6.50;82.50
4578;DHT22;2301;47.354;8.528;2022-12-04T14:54:03;6.50;82.60
4578;DHT22;2301;47.354;8.528;2022-12-04T14:56:43;6.50;82.60
4578;DHT22;2301;47.354;8.528;2022-12-04T14:59:16;6.50;82.50
4578;DHT22;2301;47.354;8.528;2022-12-04T15:01:49;6.50;82.60
4578;DHT22;2301;47.354;8.528;2022-12-04T15:04:22;6.50;82.60
4578;DHT22;2301;47.354;8.528;2022-12-04T15:06:52;6.50;82.60
4578;DHT22;2301;47.354;8.528;2022-12-04T15:09:22;6.50;82.60
4578;DHT22;2301;47.354;8.528;2022-12-04T15:12:16;6.50;82.60
4578;DHT22;2301;47.354;8.528;2022-12-04T15:15:10;6.50;82.70
4578;DHT22;2301;47.354;8.528;2022-12-04T15:17:40;6.50;82.80
4578;DHT22;2301;47.354;8.528;2022-12-04T15:20:09;6.50;82.70
4578;DHT22;2301;47.354;8.528;2022-12-04T15:22:38;6.50;82.80
4578;DHT22;2301;47.354;8.528;2022-12-04T15:28:01;6.50;82.80
4578;DHT22;2301;47.354;8.528;2022-12-04T15:30:34;6.50;82.70
4578;DHT22;2301;47.354;8.528;2022-12-04T15:33:07;6.50;82.60
4578;DHT22;2301;47.354;8.528;2022-12-04T15:54:20;6.30;82.40
4578;DHT22;2301;47.354;8.528;2022-12-04T16:00:37;6.40;82.80
4578;DHT22;2301;47.354;8.528;2022-12-04T16:03:30;6.40;83.10
4578;DHT22;2301;47.354;8.528;2022-12-04T16:08:57;6.40;83.20
4578;DHT22;2301;47.354;8.528;2022-12-04T16:11:31;6.40;83.30
4578;DHT22;2301;47.354;8.528;2022-12-04T16:17:32;6.40;83.30
4578;DHT22;2301;47.354;8.528;2022-12-04T16:21:10;6.40;83.30
4578;DHT22;2301;47.354;8.528;2022-12-04T16:23:48;6.40;83.30
4578;DHT22;2301;47.354;8.528;2022-12-04T16:26:35;6.40;83.30
4578;DHT22;2301;47.354;8.528;2022-12-04T16:29:08;6.40;83.20
4578;DHT22;2301;47.354;8.528;2022-12-04T16:34:32;6.40;83.00
4578;DHT22;2301;47.354;8.528;2022-12-04T16:37:10;6.40;83.00
4578;DHT22;2301;47.354;8.528;2022-12-04T16:39:45;6.50;83.00
4578;DHT22;2301;47.354;8.528;2022-12-04T16:42:37;6.40;82.80
4578;DHT22;2301;47.354;8.528;2022-12-04T16:45:27;6.40;82.60
4578;DHT22;2301;47.354;8.528;2022-12-04T16:48:01;6.50;82.80
4578;DHT22;2301;47.354;8.528;2022-12-04T16:50:33;6.40;82.60
4578;DHT22;2301;47.354;8.528;2022-12-04T16:53:09;6.40;82.50
4578;DHT22;2301;47.354;8.528;2022-12-04T16:55:48;6.40;82.60
4578;DHT22;2301;47.354;8.528;2022-12-04T16:58:23;6.40;82.60
4578;DHT22;2301;47.354;8.528;2022-12-04T17:01:02;6.40;82.60
4578;DHT22;2301;47.354;8.528;2022-12-04T17:03:34;6.40;82.60
4578;DHT22;2301;47.354;8.528;2022-12-04T17:06:04;6.40;82.60
4578;DHT22;2301;47.354;8.528;2022-12-04T17:08:32;6.40;82.60
4578;DHT22;2301;47.354;8.528;2022-12-04T17:11:00;6.50;82.40
4578;DHT22;2301;47.354;8.528;2022-12-04T17:13:33;6.40;82.50
4578;DHT22;2301;47.354;8.528;2022-12-04T17:16:02;6.40;82.60
4578;DHT22;2301;47.354;8.528;2022-12-04T17:18:31;6.40;82.50
4578;DHT22;2301;47.354;8.528;2022-12-04T17:21:00;6.40;82.40
4578;DHT22;2301;47.354;8.528;2022-12-04T17:23:31;6.40;82.20
4578;DHT22;2301;47.354;8.528;2022-12-04T17:26:02;6.40;82.30
4578;DHT22;2301;47.354;8.528;2022-12-04T17:28:31;6.30;82.10
4578;DHT22;2301;47.354;8.528;2022-12-04T17:31:01;6.30;82.20
4578;DHT22;2301;47.354;8.528;2022-12-04T17:33:31;6.30;82.30
4578;DHT22;2301;47.354;8.528;2022-12-04T17:36:11;6.30;82.30
4578;DHT22;2301;47.354;8.528;2022-12-04T17:38:41;6.30;82.40
4578;DHT22;2301;47.354;8.528;2022-12-04T17:41:16;6.30;82.30